createdAt,value
2018-09-21T00:01:01.825Z,23.90
2018-09-21T00:03:32.870Z,24.00
2018-09-21T00:06:04.139Z,24.00
2018-09-21T00:08:35.158Z,23.90
2018-09-21T00:11:06.019Z,23.90
2018-09-21T00:13:37.527Z,23.90
2018-09-21T00:16:08.626Z,23.90
2018-09-21T00:18:39.636Z,23.90
2018-09-21T00:21:11.458Z,23.90
2018-09-21T00:23:42.135Z,23.90
2018-09-21T00:26:13.322Z,23.90
2018-09-21T00:28:44.016Z,23.90
2018-09-21T00:31:14.941Z,23.90
2018-09-21T00:33:45.894Z,23.90
2018-09-21T00:36:17.027Z,23.80
2018-09-21T00:38:47.651Z,23.80
2018-09-21T00:41:19.303Z,23.80
2018-09-21T00:43:50.193Z,23.80
2018-09-21T00:46:21.330Z,23.80
2018-09-21T00:48:52.500Z,23.80
2018-09-21T00:51:23.902Z,23.90
2018-09-21T00:53:55.720Z,23.80
2018-09-21T00:56:27.450Z,23.90
2018-09-21T00:58:58.652Z,23.80
2018-09-21T01:01:29.568Z,23.80
2018-09-21T01:04:00.762Z,23.90
2018-09-21T01:06:31.708Z,23.90
2018-09-21T01:13:11.028Z,23.80
2018-09-21T01:29:23.325Z,23.90
2018-09-21T01:31:54.410Z,23.80
2018-09-21T01:34:25.408Z,23.70
2018-09-21T01:36:56.835Z,23.80
2018-09-21T01:39:27.858Z,23.70
2018-09-21T01:41:58.618Z,23.70
2018-09-21T01:44:29.773Z,23.70
2018-09-21T01:47:03.459Z,23.70
2018-09-21T01:49:34.790Z,23.70
2018-09-21T01:52:05.651Z,23.70
2018-09-21T01:54:36.202Z,23.70
2018-09-21T01:57:07.243Z,23.70
2018-09-21T01:59:38.489Z,23.70
2018-09-21T02:02:09.207Z,23.60
2018-09-21T02:04:41.154Z,23.60
2018-09-21T02:07:12.646Z,23.60
2018-09-21T02:09:43.532Z,23.60
2018-09-21T02:12:14.263Z,23.60
2018-09-21T02:14:45.506Z,23.60
2018-09-21T02:17:16.557Z,23.60
2018-09-21T02:19:47.357Z,23.60
2018-09-21T02:22:18.847Z,23.60
2018-09-21T02:24:49.600Z,23.60
2018-09-21T02:27:20.248Z,23.60
2018-09-21T02:29:50.932Z,23.70
2018-09-21T02:32:21.664Z,23.70
2018-09-21T02:34:52.729Z,23.70
2018-09-21T02:37:23.708Z,23.70
2018-09-21T02:39:54.334Z,23.70
2018-09-21T02:42:25.062Z,23.70
2018-09-21T02:44:56.121Z,23.70
2018-09-21T02:47:27.250Z,23.80
2018-09-21T02:49:57.787Z,23.80
2018-09-21T02:52:28.368Z,23.70
2018-09-21T02:54:59.679Z,23.80
2018-09-21T02:57:30.359Z,23.80
2018-09-21T03:00:01.510Z,23.80
2018-09-21T03:02:32.542Z,23.80
2018-09-21T03:05:03.221Z,23.80
2018-09-21T03:07:34.437Z,23.80
2018-09-21T03:10:05.253Z,23.80
2018-09-21T03:12:35.857Z,24.00
2018-09-21T03:15:06.673Z,23.80
2018-09-21T03:17:37.264Z,23.80
2018-09-21T03:20:09.094Z,23.80
2018-09-21T03:22:40.614Z,23.90
2018-09-21T03:25:11.265Z,23.80
2018-09-21T03:27:42.548Z,23.80
2018-09-21T03:30:13.385Z,23.80
2018-09-21T03:32:44.009Z,23.80
2018-09-21T03:35:15.424Z,23.80
2018-09-21T03:37:46.263Z,23.80
2018-09-21T03:40:17.094Z,23.80
2018-09-21T03:42:48.127Z,23.90
2018-09-21T03:45:18.822Z,23.80
2018-09-21T03:47:49.832Z,23.80
2018-09-21T03:50:21.626Z,23.90
2018-09-21T03:52:52.815Z,23.80
2018-09-21T03:55:23.452Z,23.80
2018-09-21T03:57:54.350Z,23.80
2018-09-21T04:00:26.480Z,23.80
2018-09-21T04:02:57.856Z,23.90
2018-09-21T04:05:28.395Z,23.80
2018-09-21T04:07:59.573Z,23.80
2018-09-21T04:10:30.281Z,23.80
2018-09-21T04:13:01.041Z,23.80
2018-09-21T04:15:31.763Z,23.90
2018-09-21T04:18:02.500Z,23.80
2018-09-21T04:20:33.162Z,23.80
2018-09-21T04:23:04.158Z,23.90
2018-09-21T04:25:36.160Z,23.90
2018-09-21T04:28:07.097Z,23.90
2018-09-21T04:30:39.042Z,23.90
2018-09-21T04:33:09.655Z,23.90
2018-09-21T04:35:40.472Z,24.00
2018-09-21T04:38:12.178Z,24.00
2018-09-21T04:40:44.608Z,24.00
2018-09-21T04:43:15.569Z,24.00
2018-09-21T04:45:46.833Z,24.10
2018-09-21T04:48:17.857Z,24.10
2018-09-21T04:50:48.776Z,24.10
2018-09-21T04:53:19.648Z,24.10
2018-09-21T04:55:51.982Z,24.00
2018-09-21T04:58:22.777Z,24.10
2018-09-21T05:00:53.394Z,24.10
2018-09-21T05:03:23.981Z,24.10
2018-09-21T05:05:54.911Z,24.00
2018-09-21T05:08:25.743Z,24.10
2018-09-21T05:10:56.473Z,24.10
2018-09-21T05:13:27.225Z,24.10
2018-09-21T05:15:58.007Z,24.10
2018-09-21T05:18:28.985Z,24.10
2018-09-21T05:20:59.529Z,24.10
2018-09-21T05:23:30.707Z,24.00
2018-09-21T05:26:01.379Z,24.10
2018-09-21T05:28:32.187Z,24.10
2018-09-21T05:31:02.962Z,24.10
2018-09-21T05:33:38.984Z,24.10
2018-09-21T05:36:09.931Z,24.10
2018-09-21T05:38:40.709Z,24.10
2018-09-21T05:41:11.539Z,24.10
2018-09-21T05:43:42.567Z,24.10
2018-09-21T05:46:13.706Z,24.10
2018-09-21T05:48:44.705Z,24.10
2018-09-21T05:51:15.618Z,24.10
2018-09-21T05:53:46.813Z,24.10
2018-09-21T05:56:17.718Z,24.20
2018-09-21T05:58:48.758Z,24.20
2018-09-21T06:01:19.696Z,24.20
2018-09-21T06:03:50.657Z,24.20
2018-09-21T06:06:21.256Z,24.30
2018-09-21T06:08:52.241Z,24.30
2018-09-21T06:11:23.349Z,24.30
2018-09-21T06:13:54.207Z,24.40
2018-09-21T06:16:25.726Z,24.40
2018-09-21T06:18:56.216Z,24.40
2018-09-21T06:21:26.895Z,24.40
2018-09-21T06:23:57.450Z,24.40
2018-09-21T06:26:28.041Z,24.50
2018-09-21T06:28:59.144Z,24.50
2018-09-21T06:31:30.375Z,24.50
2018-09-21T06:34:01.029Z,24.50
2018-09-21T06:36:32.341Z,24.50
2018-09-21T06:39:03.467Z,24.60
2018-09-21T06:41:34.176Z,24.60
2018-09-21T06:44:06.399Z,24.50
2018-09-21T06:46:38.641Z,24.60
2018-09-21T06:49:09.215Z,24.60
2018-09-21T06:51:40.334Z,24.60
2018-09-21T06:54:11.010Z,24.60
2018-09-21T06:56:41.718Z,24.60
2018-09-21T06:59:12.533Z,24.70
2018-09-21T07:01:43.462Z,24.60
2018-09-21T07:04:14.828Z,24.60
2018-09-21T07:06:45.580Z,24.60
2018-09-21T07:09:16.616Z,24.60
2018-09-21T07:11:47.949Z,24.60
2018-09-21T07:14:18.755Z,24.60
2018-09-21T07:16:49.483Z,24.60
2018-09-21T07:19:20.430Z,25.10
2018-09-21T07:21:51.058Z,24.70
2018-09-21T07:24:22.351Z,24.70
2018-09-21T07:26:52.995Z,24.70
2018-09-21T07:29:23.722Z,24.60
2018-09-21T07:31:54.568Z,24.70
2018-09-21T07:34:25.318Z,24.60
2018-09-21T07:36:56.683Z,24.60
2018-09-21T07:39:27.436Z,24.60
2018-09-21T07:41:59.085Z,24.60
2018-09-21T07:44:29.940Z,25.00
2018-09-21T07:47:01.833Z,24.60
2018-09-21T07:49:32.674Z,24.60
2018-09-21T07:52:03.401Z,24.50
2018-09-21T07:54:34.239Z,24.50
2018-09-21T07:57:11.658Z,24.50
2018-09-21T07:59:43.000Z,24.50
2018-09-21T08:02:14.213Z,24.40
2018-09-21T08:04:46.481Z,24.40
2018-09-21T08:07:17.236Z,24.40
2018-09-21T08:09:48.615Z,24.30
2018-09-21T08:12:19.230Z,24.30
2018-09-21T08:14:50.040Z,24.30
2018-09-21T08:17:22.694Z,24.30
2018-09-21T08:19:53.502Z,24.30
2018-09-21T08:22:25.031Z,24.20
2018-09-21T08:24:55.972Z,24.20
2018-09-21T08:27:26.948Z,24.30
2018-09-21T08:29:57.989Z,24.20
2018-09-21T08:32:29.146Z,24.20
2018-09-21T08:35:00.924Z,24.10
2018-09-21T08:37:32.627Z,24.10
2018-09-21T08:40:03.722Z,24.10
2018-09-21T08:42:34.358Z,24.00
2018-09-21T08:45:06.264Z,23.80
2018-09-21T08:47:37.213Z,23.60
2018-09-21T08:50:10.124Z,23.30
2018-09-21T08:52:40.860Z,22.90
2018-09-21T08:55:11.599Z,22.50
2018-09-21T08:57:42.598Z,22.10
2018-09-21T09:00:13.406Z,21.70
2018-09-21T09:02:45.334Z,21.40
2018-09-21T09:05:16.473Z,21.00
2018-09-21T09:07:47.682Z,20.70
2018-09-21T09:10:18.458Z,20.40
2018-09-21T09:12:49.441Z,20.10
2018-09-21T09:15:20.610Z,19.90
2018-09-21T09:17:52.422Z,19.70
2018-09-21T09:20:23.599Z,19.50
2018-09-21T09:22:54.616Z,19.30
2018-09-21T09:25:26.067Z,19.10
2018-09-21T09:27:57.208Z,19.00
2018-09-21T09:30:28.144Z,18.90
2018-09-21T09:32:59.610Z,18.80
2018-09-21T09:35:30.653Z,18.70
2018-09-21T09:38:01.580Z,18.60
2018-09-21T09:40:32.524Z,18.50
2018-09-21T09:43:03.388Z,18.40
2018-09-21T09:45:34.614Z,18.30
2018-09-21T09:48:05.486Z,18.20
2018-09-21T09:50:36.435Z,17.40
2018-09-21T09:53:07.595Z,18.10
2018-09-21T09:55:38.454Z,18.10
2018-09-21T09:58:09.432Z,18.10
2018-09-21T10:00:45.312Z,18.00
2018-09-21T10:03:16.300Z,18.00
2018-09-21T10:05:47.334Z,18.00
2018-09-21T10:08:18.139Z,18.00
2018-09-21T10:10:49.340Z,18.00
2018-09-21T10:13:20.122Z,18.00
2018-09-21T10:15:51.410Z,18.00
2018-09-21T10:18:22.263Z,17.90
2018-09-21T10:20:53.429Z,18.00
2018-09-21T10:23:24.330Z,18.00
2018-09-21T10:25:55.471Z,18.00
2018-09-21T10:28:27.209Z,18.10
2018-09-21T10:30:58.508Z,18.20
2018-09-21T10:33:29.797Z,18.20
2018-09-21T10:36:01.166Z,18.30
2018-09-21T10:38:31.927Z,18.30
2018-09-21T10:41:03.146Z,18.40
2018-09-21T10:43:34.991Z,18.50
2018-09-21T10:46:06.082Z,18.50
2018-09-21T10:48:36.905Z,18.50
2018-09-21T10:51:07.797Z,18.60
2018-09-21T10:53:40.880Z,18.60
2018-09-21T10:57:09.188Z,18.70
2018-09-21T11:03:40.459Z,18.80
2018-09-21T11:06:11.615Z,19.00
2018-09-21T11:08:47.343Z,19.10
2018-09-21T11:11:21.957Z,19.50
2018-09-21T11:13:56.399Z,19.00
2018-09-21T11:16:31.421Z,19.00
2018-09-21T11:19:07.278Z,19.00
2018-09-21T11:21:45.399Z,19.10
2018-09-21T11:24:21.094Z,19.00
2018-09-21T11:26:54.699Z,19.00
2018-09-21T11:29:29.216Z,19.10
2018-09-21T11:32:05.675Z,19.10
2018-09-21T11:34:38.653Z,20.20
2018-09-21T11:37:10.902Z,19.20
2018-09-21T11:39:41.853Z,19.30
2018-09-21T11:42:12.875Z,19.40
2018-09-21T11:44:43.921Z,19.60
2018-09-21T11:47:15.215Z,19.70
2018-09-21T11:49:45.879Z,19.80
2018-09-21T11:52:16.778Z,20.00
2018-09-21T11:54:47.677Z,20.20
2018-09-21T11:57:18.964Z,20.40
2018-09-21T11:59:50.114Z,20.50
2018-09-21T12:02:21.124Z,20.70
2018-09-21T12:04:52.144Z,20.80
2018-09-21T12:07:23.089Z,20.90
2018-09-21T12:09:53.919Z,21.00
2018-09-21T12:16:24.418Z,21.10
2018-09-21T12:18:55.217Z,21.00
2018-09-21T12:21:26.154Z,21.10
2018-09-21T12:23:56.869Z,21.10
2018-09-21T12:26:27.556Z,21.00
2018-09-21T12:28:58.895Z,20.90
2018-09-21T12:31:29.609Z,20.90
2018-09-21T12:34:00.276Z,20.80
2018-09-21T12:36:30.953Z,20.80
2018-09-21T12:39:01.931Z,20.80
2018-09-21T12:41:32.607Z,20.70
2018-09-21T12:44:03.353Z,20.70
2018-09-21T12:46:34.627Z,20.60
2018-09-21T12:49:06.324Z,20.60
2018-09-21T12:51:37.147Z,20.60
2018-09-21T12:54:08.078Z,20.60
2018-09-21T12:56:39.978Z,20.60
2018-09-21T12:59:10.797Z,20.60
2018-09-21T13:01:41.746Z,20.60
2018-09-21T13:04:12.794Z,20.60
2018-09-21T13:06:43.510Z,20.60
2018-09-21T13:09:14.206Z,20.60
2018-09-21T13:11:44.854Z,20.70
2018-09-21T13:14:15.538Z,20.70
2018-09-21T13:16:46.516Z,20.70
2018-09-21T13:19:17.315Z,20.80
2018-09-21T13:21:48.938Z,20.80
2018-09-21T13:24:19.557Z,20.80
2018-09-21T13:26:50.766Z,20.80
2018-09-21T13:29:21.657Z,20.90
2018-09-21T13:31:52.300Z,20.90
2018-09-21T13:34:22.963Z,20.90
2018-09-21T13:36:53.645Z,20.90
2018-09-21T13:39:24.874Z,20.90
2018-09-21T13:41:55.931Z,20.90
2018-09-21T13:44:26.656Z,20.80
2018-09-21T13:46:57.350Z,20.80
2018-09-21T13:49:27.991Z,20.90
2018-09-21T13:51:58.989Z,20.80
2018-09-21T13:54:29.902Z,20.90
2018-09-21T13:57:00.513Z,20.90
2018-09-21T13:59:31.186Z,20.90
2018-09-21T14:02:01.793Z,20.90
2018-09-21T14:04:32.490Z,20.90
2018-09-21T14:07:03.198Z,21.00
2018-09-21T14:09:34.711Z,21.10
2018-09-21T14:12:11.923Z,21.20
2018-09-21T14:14:42.721Z,21.30
2018-09-21T14:17:13.571Z,21.40
2018-09-21T14:19:44.643Z,21.40
2018-09-21T14:22:15.752Z,21.40
2018-09-21T14:24:46.671Z,21.60
2018-09-21T14:27:17.353Z,21.70
2018-09-21T14:29:48.142Z,21.80
2018-09-21T14:32:19.372Z,21.90
2018-09-21T14:34:50.155Z,21.90
2018-09-21T14:37:20.876Z,21.80
2018-09-21T14:39:51.890Z,21.80
2018-09-21T14:42:22.621Z,21.70
2018-09-21T14:44:53.333Z,21.60
2018-09-21T14:47:24.630Z,21.50
2018-09-21T14:49:55.317Z,21.40
2018-09-21T14:52:26.853Z,21.30
2018-09-21T14:54:57.843Z,21.20
2018-09-21T14:57:29.097Z,21.10
2018-09-21T14:59:59.901Z,21.00
2018-09-21T15:02:30.880Z,20.90
2018-09-21T15:05:01.870Z,20.70
2018-09-21T15:07:33.045Z,20.70
2018-09-21T15:10:04.029Z,20.60
2018-09-21T15:12:35.110Z,20.50
2018-09-21T15:15:06.573Z,20.50
2018-09-21T15:17:37.231Z,20.40
2018-09-21T15:20:08.545Z,20.30
2018-09-21T15:22:39.696Z,20.30
2018-09-21T15:25:10.560Z,20.20
2018-09-21T15:27:41.325Z,20.20
2018-09-21T15:30:12.028Z,20.10
2018-09-21T15:32:42.773Z,20.10
2018-09-21T15:35:14.184Z,20.00
2018-09-21T15:37:44.857Z,20.00
2018-09-21T15:40:15.768Z,20.00
2018-09-21T15:42:46.515Z,19.90
2018-09-21T15:45:17.212Z,19.90
2018-09-21T15:47:47.958Z,19.90
2018-09-21T15:50:18.746Z,19.80
2018-09-21T15:52:49.491Z,19.90
2018-09-21T15:55:20.820Z,19.90
2018-09-21T15:57:51.670Z,19.80
2018-09-21T16:00:22.467Z,19.90
2018-09-21T16:02:53.004Z,19.80
2018-09-21T16:05:23.840Z,19.90
2018-09-21T16:07:55.172Z,19.90
2018-09-21T16:10:25.879Z,19.90
2018-09-21T16:12:56.485Z,19.90
2018-09-21T16:15:27.276Z,19.90
2018-09-21T16:17:58.056Z,19.90
2018-09-21T16:20:29.229Z,19.80
2018-09-21T16:23:00.057Z,19.80
2018-09-21T16:25:31.034Z,19.80
2018-09-21T16:28:01.766Z,19.80
2018-09-21T16:30:32.505Z,19.80
2018-09-21T16:33:03.493Z,19.80
2018-09-21T16:35:34.115Z,19.70
2018-09-21T16:38:05.277Z,19.70
2018-09-21T16:40:36.192Z,19.70
2018-09-21T16:43:07.671Z,19.60
2018-09-21T16:45:38.291Z,19.60
2018-09-21T16:48:09.167Z,19.60
2018-09-21T16:50:40.874Z,19.50
2018-09-21T16:53:11.783Z,19.50
2018-09-21T16:55:42.703Z,19.40
2018-09-21T16:58:13.389Z,19.40
2018-09-21T17:00:44.359Z,19.40
2018-09-21T17:03:15.140Z,19.30
2018-09-21T17:05:46.353Z,19.30
2018-09-21T17:08:17.653Z,19.20
2018-09-21T17:10:48.616Z,19.20
2018-09-21T17:13:19.406Z,19.20
2018-09-21T17:15:50.369Z,19.10
2018-09-21T17:18:21.322Z,19.10
2018-09-21T17:20:52.240Z,19.00
2018-09-21T17:23:23.084Z,19.00
2018-09-21T17:25:54.315Z,19.00
2018-09-21T17:28:25.214Z,18.90
2018-09-21T17:30:56.149Z,19.10
2018-09-21T17:33:27.179Z,18.90
2018-09-21T17:35:58.760Z,18.80
2018-09-21T17:38:30.532Z,18.80
2018-09-21T17:41:01.713Z,18.70
2018-09-21T17:43:32.658Z,18.70
2018-09-21T17:46:03.279Z,18.70
2018-09-21T17:48:34.050Z,18.70
2018-09-21T17:51:04.711Z,18.60
2018-09-21T17:53:35.459Z,18.60
2018-09-21T17:56:06.142Z,18.60
2018-09-21T17:58:36.884Z,18.50
2018-09-21T18:01:07.940Z,18.50
2018-09-21T18:03:38.669Z,18.50
2018-09-21T18:06:09.946Z,18.50
2018-09-21T18:08:40.689Z,18.50
2018-09-21T18:11:12.012Z,18.40
2018-09-21T18:13:42.511Z,18.50
2018-09-21T18:16:13.199Z,18.50
2018-09-21T18:18:44.153Z,18.50
2018-09-21T18:21:15.092Z,18.50
2018-09-21T18:23:46.015Z,18.50
2018-09-21T18:26:16.746Z,18.50
2018-09-21T18:28:47.399Z,18.50
2018-09-21T18:31:18.083Z,18.50
2018-09-21T18:33:49.307Z,18.60
2018-09-21T18:36:20.152Z,18.50
2018-09-21T18:38:50.870Z,18.50
2018-09-21T18:41:21.585Z,18.50
2018-09-21T18:43:52.624Z,18.40
2018-09-21T18:46:23.613Z,18.40
2018-09-21T18:48:54.605Z,18.30
2018-09-21T18:51:25.754Z,18.30
2018-09-21T18:53:56.805Z,18.20
2018-09-21T18:56:28.081Z,18.20
2018-09-21T18:58:59.527Z,18.10
2018-09-21T19:01:30.597Z,18.10
2018-09-21T19:04:01.624Z,18.10
2018-09-21T19:06:32.888Z,18.00
2018-09-21T19:09:04.041Z,18.00
2018-09-21T19:11:35.155Z,18.00
2018-09-21T19:14:07.214Z,18.00
2018-09-21T19:16:38.316Z,18.00
2018-09-21T19:19:09.422Z,18.00
2018-09-21T19:21:40.683Z,17.90
2018-09-21T19:24:11.730Z,17.90
2018-09-21T19:26:42.814Z,17.90
2018-09-21T19:29:13.958Z,17.90
2018-09-21T19:31:45.044Z,17.90
2018-09-21T19:34:16.137Z,17.90
2018-09-21T19:36:46.853Z,17.80
2018-09-21T19:39:17.893Z,17.80
2018-09-21T19:41:48.921Z,17.80
2018-09-21T19:44:19.559Z,17.90
2018-09-21T19:46:50.525Z,18.00
2018-09-21T19:49:21.827Z,17.90
2018-09-21T19:51:52.571Z,17.90
2018-09-21T19:54:23.473Z,17.90
2018-09-21T19:56:54.523Z,17.90
2018-09-21T19:59:25.250Z,17.90
2018-09-21T20:01:56.062Z,17.90
2018-09-21T20:04:27.000Z,17.90
2018-09-21T20:06:57.844Z,17.90
2018-09-21T20:09:28.904Z,17.90
2018-09-21T20:11:59.981Z,17.80
2018-09-21T20:14:30.945Z,17.90
2018-09-21T20:17:01.808Z,17.90
2018-09-21T20:19:32.577Z,17.90
2018-09-21T20:22:03.421Z,18.00
2018-09-21T20:24:34.905Z,17.90
2018-09-21T20:27:06.402Z,17.90
2018-09-21T20:29:37.375Z,17.90
2018-09-21T20:32:13.447Z,17.90
2018-09-21T20:34:44.400Z,17.90
2018-09-21T20:37:15.430Z,17.90
2018-09-21T20:39:46.413Z,17.90
2018-09-21T20:42:18.898Z,17.90
2018-09-21T20:44:49.750Z,17.90
2018-09-21T20:47:20.553Z,17.90
2018-09-21T20:49:51.164Z,17.80
2018-09-21T20:52:22.089Z,17.80
2018-09-21T20:54:52.843Z,17.70
2018-09-21T20:57:23.714Z,17.70
2018-09-21T20:59:54.526Z,17.70
2018-09-21T21:02:25.392Z,17.60
2018-09-21T21:04:56.031Z,17.60
2018-09-21T21:07:27.109Z,17.50
2018-09-21T21:09:58.094Z,17.50
2018-09-21T21:12:28.987Z,17.40
2018-09-21T21:14:59.759Z,17.40
2018-09-21T21:17:30.603Z,17.30
2018-09-21T21:20:01.259Z,17.30
2018-09-21T21:22:32.246Z,17.20
2018-09-21T21:25:03.022Z,17.20
2018-09-21T21:27:34.229Z,17.20
2018-09-21T21:30:05.436Z,17.20
2018-09-21T21:32:36.702Z,17.10
2018-09-21T21:35:07.529Z,17.10
2018-09-21T21:37:38.587Z,17.00
2018-09-21T21:40:09.305Z,17.10
2018-09-21T21:42:40.135Z,17.00
2018-09-21T21:45:10.961Z,17.00
2018-09-21T21:47:41.793Z,17.00
2018-09-21T21:50:12.737Z,16.90
2018-09-21T21:52:43.706Z,16.90
2018-09-21T21:55:14.690Z,16.90
2018-09-21T21:57:45.375Z,16.90
2018-09-21T22:00:16.437Z,16.80
2018-09-21T22:02:47.324Z,16.80
2018-09-21T22:05:18.211Z,16.80
2018-09-21T22:07:48.998Z,16.80
2018-09-21T22:10:19.611Z,16.70
2018-09-21T22:12:55.327Z,16.70
2018-09-21T22:15:26.172Z,16.70
2018-09-21T22:17:58.473Z,16.70
2018-09-21T22:20:31.547Z,16.70
2018-09-21T22:23:07.313Z,16.60
2018-09-21T22:25:38.117Z,16.60
2018-09-21T22:28:09.027Z,16.60
2018-09-21T22:30:39.776Z,16.60
2018-09-21T22:33:10.500Z,16.60
2018-09-21T22:35:41.836Z,16.60
2018-09-21T22:38:13.224Z,16.60
2018-09-21T22:40:44.475Z,16.60
2018-09-21T22:43:15.214Z,16.60
2018-09-21T22:45:46.269Z,16.70
2018-09-21T22:48:17.037Z,16.60
2018-09-21T22:50:48.338Z,16.70
2018-09-21T22:53:18.972Z,16.70
2018-09-21T22:55:50.438Z,16.70
2018-09-21T22:58:21.246Z,16.70
2018-09-21T23:00:52.290Z,16.70
2018-09-21T23:03:23.018Z,16.80
2018-09-21T23:05:53.956Z,16.80
2018-09-21T23:08:25.949Z,16.80
2018-09-21T23:10:56.750Z,16.80
2018-09-21T23:13:27.401Z,16.80
2018-09-21T23:15:58.393Z,16.80
2018-09-21T23:18:29.078Z,16.80
2018-09-21T23:20:59.718Z,16.90
2018-09-21T23:23:30.671Z,16.80
2018-09-21T23:26:01.313Z,16.80
2018-09-21T23:28:32.440Z,16.90
2018-09-21T23:31:03.076Z,16.90
2018-09-21T23:33:33.767Z,16.90
2018-09-21T23:36:04.822Z,16.90
2018-09-21T23:38:35.744Z,16.90
2018-09-21T23:41:06.566Z,16.90
2018-09-21T23:43:37.103Z,16.90
2018-09-21T23:46:08.429Z,17.00
2018-09-21T23:48:39.280Z,16.90
2018-09-21T23:51:11.116Z,16.90
2018-09-21T23:53:41.729Z,16.90
2018-09-21T23:56:12.419Z,17.00
2018-09-21T23:58:43.172Z,16.90
